Time;durP1;ratioP1;P1;durP2;ratioP2;P2;SDS_P1;SDS_P2;PMS_P1;PMS_P2;Temp;Humidity;BMP_temperature;BMP_pressure;BME280_temperature;BME280_humidity;BME280_pressure;Samples;Min_cycle;Max_cycle;Signal;HPM_P1;HPM_P2
2022/12/24 00:00:17;;;;;;;30.50;7.63;;;;;;;8.68;100.00;100497.06;5022060;28;20045;-71
2022/12/24 00:02:42;;;;;;;33.97;7.80;;;;;;;8.61;100.00;100503.16;5021661;28;20034;-71
2022/12/24 00:05:09;;;;;;;31.45;7.85;;;;;;;8.66;100.00;100510.19;5024353;28;20033;-71
2022/12/24 00:07:35;;;;;;;36.38;8.30;;;;;;;8.68;100.00;100494.41;5021171;28;20022;-71
2022/12/24 00:10:00;;;;;;;33.42;8.70;;;;;;;8.69;100.00;100493.53;5023934;28;20056;-71
2022/12/24 00:12:26;;;;;;;32.97;8.80;;;;;;;8.71;100.00;100515.50;5022002;28;20061;-71
2022/12/24 00:14:51;;;;;;;34.92;9.00;;;;;;;8.76;100.00;100508.50;5022630;28;20045;-71
2022/12/24 00:17:16;;;;;;;32.35;8.77;;;;;;;8.71;100.00;100500.56;5023333;28;20030;-71
2022/12/24 00:19:42;;;;;;;36.17;9.15;;;;;;;8.72;100.00;100498.81;5021115;28;20373;-70
2022/12/24 00:22:08;;;;;;;34.45;8.88;;;;;;;8.74;100.00;100518.16;5024720;28;20387;-71
2022/12/24 00:24:33;;;;;;;36.72;9.20;;;;;;;8.67;100.00;100514.59;5024497;28;20029;-71
2022/12/24 00:26:58;;;;;;;34.08;10.15;;;;;;;8.64;100.00;100521.63;5027237;28;20056;-71
2022/12/24 00:29:24;;;;;;;33.72;9.45;;;;;;;8.66;100.00;100515.47;5026252;28;20121;-71
2022/12/24 00:31:49;;;;;;;34.03;9.20;;;;;;;8.68;100.00;100526.91;5025874;28;20113;-72
2022/12/24 00:34:15;;;;;;;33.75;9.60;;;;;;;8.76;100.00;100523.44;5027203;28;20033;-71
2022/12/24 00:36:40;;;;;;;34.78;9.40;;;;;;;8.76;100.00;100531.34;5024600;28;20496;-71
2022/12/24 00:39:05;;;;;;;35.38;9.55;;;;;;;8.76;100.00;100534.00;5026785;28;20040;-71
2022/12/24 00:41:31;;;;;;;36.83;9.20;;;;;;;8.76;100.00;100536.63;5024899;28;20033;-71
2022/12/24 00:44:05;;;;;;;33.17;8.52;;;;;;;8.77;100.00;100539.28;5025579;28;20065;-72
2022/12/24 00:46:33;;;;;;;33.78;9.10;;;;;;;8.75;100.00;100548.03;5024772;28;20038;-71
2022/12/24 00:48:59;;;;;;;34.85;8.90;;;;;;;8.71;100.00;100563.81;5026731;28;20049;-72
2022/12/24 00:51:25;;;;;;;34.40;9.05;;;;;;;8.73;100.00;100562.06;5024494;28;20471;-71
2022/12/24 00:53:50;;;;;;;33.85;8.98;;;;;;;8.72;100.00;100564.69;5025570;28;20033;-71
2022/12/24 00:56:16;;;;;;;33.58;8.82;;;;;;;8.76;100.00;100565.63;5025416;28;20036;-71
2022/12/24 00:58:42;;;;;;;34.05;8.63;;;;;;;8.79;100.00;100565.63;5024377;28;20030;-71
2022/12/24 01:01:07;;;;;;;33.13;8.35;;;;;;;8.75;100.00;100569.13;5027481;28;20095;-71
2022/12/24 01:03:34;;;;;;;31.85;8.18;;;;;;;8.71;100.00;100579.63;5024346;28;20361;-71
2022/12/24 01:06:03;;;;;;;31.27;8.20;;;;;;;8.76;100.00;100589.34;5026800;28;20034;-71
2022/12/24 01:08:28;;;;;;;33.42;8.57;;;;;;;8.72;100.00;100581.41;5024815;28;20018;-71
2022/12/24 01:10:54;;;;;;;31.90;8.48;;;;;;;8.77;100.00;100576.16;5024479;28;20037;-71
2022/12/24 01:13:19;;;;;;;31.00;8.57;;;;;;;8.76;100.00;100586.69;5024944;28;20026;-72
2022/12/24 01:15:45;;;;;;;30.42;8.07;;;;;;;8.62;100.00;100583.94;5024351;28;20030;-71
2022/12/24 01:18:10;;;;;;;32.45;7.80;;;;;;;8.55;100.00;100589.16;5027189;28;20075;-71
2022/12/24 01:20:35;;;;;;;32.10;8.65;;;;;;;8.55;100.00;100590.94;5023950;28;20064;-71
2022/12/24 01:23:01;;;;;;;34.30;8.93;;;;;;;8.50;100.00;100595.25;5026428;28;20468;-71
2022/12/24 01:25:26;;;;;;;31.38;8.57;;;;;;;8.45;100.00;100604.88;5023851;28;20120;-71
2022/12/24 01:27:51;;;;;;;31.45;8.88;;;;;;;8.42;100.00;100596.91;5025072;28;20026;-71
2022/12/24 01:30:17;;;;;;;33.45;9.32;;;;;;;8.36;100.00;100595.13;5024796;28;20109;-71
2022/12/24 01:32:42;;;;;;;32.30;8.68;;;;;;;8.34;100.00;100610.91;5024208;28;20057;-71
2022/12/24 01:35:09;;;;;;;35.42;8.95;;;;;;;8.33;100.00;100608.22;5026289;28;20045;-71
2022/12/24 01:37:34;;;;;;;32.00;8.93;;;;;;;8.25;100.00;100612.56;5023525;28;20481;-71
2022/12/24 01:45:40;;;;;;;35.50;10.27;;;;;;;8.07;100.00;100608.88;5024104;28;20129;-71
2022/12/24 01:48:21;;;;;;;34.97;9.75;;;;;;;8.14;100.00;100617.69;5027044;28;20026;-71
2022/12/24 01:50:52;;;;;;;33.70;9.00;;;;;;;8.14;100.00;100623.88;5024018;28;20095;-70
2022/12/24 01:53:17;;;;;;;31.52;8.25;;;;;;;8.25;100.00;100631.88;5025589;28;20025;-71
2022/12/24 01:55:44;;;;;;;35.85;9.52;;;;;;;8.33;100.00;100629.31;5023462;28;20030;-70
2022/12/24 01:58:13;;;;;;;35.28;8.90;;;;;;;8.36;100.00;100634.63;5026612;28;20032;-71
2022/12/24 02:00:39;;;;;;;34.33;8.48;;;;;;;8.38;100.00;100627.63;5022727;28;20073;-71
2022/12/24 02:03:04;;;;;;;35.03;8.70;;;;;;;8.32;100.00;100628.44;5026206;28;20072;-71
2022/12/24 02:05:38;;;;;;;37.35;9.02;;;;;;;8.27;100.00;100635.41;5023872;28;20399;-71
2022/12/24 02:08:06;;;;;;;35.92;8.98;;;;;;;8.29;100.00;100643.34;5025877;28;20037;-72
2022/12/24 02:10:31;;;;;;;35.60;8.43;;;;;;;8.32;100.00;100643.34;5023528;28;20037;-70
2022/12/24 02:12:59;;;;;;;35.58;8.77;;;;;;;8.38;100.00;100652.19;5024974;28;20396;-71
2022/12/24 02:15:27;;;;;;;34.75;8.95;;;;;;;8.42;100.00;100636.41;5024129;28;20040;-71
2022/12/24 02:18:09;;;;;;;34.65;8.73;;;;;;;8.44;100.00;100653.13;5024466;28;20073;-71
2022/12/24 02:20:57;;;;;;;38.10;9.48;;;;;;;8.51;100.00;100655.88;5022932;28;20030;-73
2022/12/24 02:23:44;;;;;;;33.88;8.77;;;;;;;8.53;100.00;100658.50;5022776;28;20022;-71
2022/12/24 02:26:23;;;;;;;32.95;9.02;;;;;;;8.51;100.00;100652.38;5022547;28;20035;-71
2022/12/24 02:29:10;;;;;;;35.75;9.13;;;;;;;8.49;100.00;100661.97;5023462;28;20053;-71
2022/12/24 02:31:51;;;;;;;37.00;9.43;;;;;;;8.53;100.00;100659.41;5022340;28;20088;-71
2022/12/24 02:34:30;;;;;;;38.15;9.15;;;;;;;8.53;100.00;100669.06;5022976;28;20025;-72
2022/12/24 02:37:16;;;;;;;32.38;8.70;;;;;;;8.50;100.00;100675.19;5023778;28;20542;-71
2022/12/24 02:39:54;;;;;;;34.22;7.78;;;;;;;8.59;100.00;100663.88;5022476;28;20379;-71
2022/12/24 02:42:24;;;;;;;33.35;7.63;;;;;;;8.58;100.00;100661.19;5024546;28;20033;-71
2022/12/24 02:45:01;;;;;;;34.25;8.10;;;;;;;8.53;100.00;100667.31;5023165;28;20033;-71
2022/12/24 02:47:28;;;;;;;36.50;7.90;;;;;;;8.54;100.00;100669.06;5022762;28;20108;-71
2022/12/24 02:49:54;;;;;;;38.28;7.53;;;;;;;8.55;100.00;100672.59;5022393;28;20065;-70
2022/12/24 02:52:30;;;;;;;38.53;7.80;;;;;;;8.59;100.00;100668.22;5024475;28;20518;-71
2022/12/24 02:54:57;;;;;;;36.50;7.75;;;;;;;8.60;100.00;100678.78;5023723;28;20384;-71
2022/12/24 02:57:37;;;;;;;34.22;7.40;;;;;;;8.61;100.00;100672.66;5023728;28;20083;-70
2022/12/24 03:00:09;;;;;;;33.08;7.35;;;;;;;8.57;100.00;100664.72;5024524;28;20459;-70
2022/12/24 03:02:37;;;;;;;34.50;7.32;;;;;;;8.55;100.00;100677.88;5022215;28;20026;-70
2022/12/24 03:05:08;;;;;;;36.92;8.05;;;;;;;8.57;100.00;100670.00;5024828;28;20026;-71
2022/12/24 03:07:43;;;;;;;37.47;7.60;;;;;;;8.58;100.00;100680.53;5022033;28;20026;-71
2022/12/24 03:10:38;;;;;;;32.92;7.88;;;;;;;8.59;100.00;100678.78;5021700;28;20109;-71
2022/12/24 03:13:10;;;;;;;32.63;7.40;;;;;;;8.62;100.00;100681.44;5015534;28;20038;-71
2022/12/24 03:15:37;;;;;;;;;;;;;;;8.66;100.00;100685.88;5023956;28;20029;-70
2022/12/24 03:18:05;;;;;;;33.15;7.50;;;;;;;8.65;100.00;100685.00;5022271;28;20439;-70
2022/12/24 03:20:40;;;;;;;32.53;7.53;;;;;;;8.66;100.00;100692.03;5024076;28;20507;-71
2022/12/24 03:23:06;;;;;;;31.35;8.18;;;;;;;8.77;100.00;100686.00;5021482;28;20104;-71
2022/12/24 03:25:33;;;;;;;35.47;8.55;;;;;;;8.82;100.00;100682.50;5024347;28;20026;-70
2022/12/24 03:28:02;;;;;;;29.65;8.00;;;;;;;8.86;100.00;100686.06;5021385;28;20450;-71
2022/12/24 03:30:27;;;;;;;30.42;7.72;;;;;;;8.90;100.00;100687.88;5023504;28;20049;-70
2022/12/24 03:32:53;;;;;;;31.73;8.23;;;;;;;8.91;100.00;100686.97;5023177;28;20435;-71
2022/12/24 03:35:19;;;;;;;30.05;7.28;;;;;;;8.92;100.00;100686.13;5022242;28;20099;-71
2022/12/24 03:37:44;;;;;;;30.05;8.10;;;;;;;8.97;100.00;100691.41;5024357;28;20380;-71
2022/12/24 03:40:10;;;;;;;31.70;7.78;;;;;;;8.97;100.00;100694.06;5021488;28;20439;-71
2022/12/24 03:42:35;;;;;;;31.52;7.93;;;;;;;8.95;100.00;100696.69;5024402;28;20095;-70
2022/12/24 03:45:01;;;;;;;32.65;7.60;;;;;;;8.97;100.00;100697.59;5021931;28;20045;-70
2022/12/24 03:47:26;;;;;;;31.08;7.90;;;;;;;8.97;100.00;100705.50;5023063;28;20038;-71
2022/12/24 03:49:51;;;;;;;30.60;8.15;;;;;;;8.95;100.00;100704.59;5023198;28;20026;-71
2022/12/24 03:52:17;;;;;;;30.77;7.68;;;;;;;8.95;100.00;100715.13;5021772;28;20388;-71
2022/12/24 03:54:42;;;;;;;30.05;7.95;;;;;;;8.96;100.00;100702.84;5024685;28;20025;-71
2022/12/24 03:57:08;;;;;;;31.48;8.52;;;;;;;8.95;100.00;100703.72;5023104;28;20481;-71
2022/12/24 03:59:33;;;;;;;30.60;8.10;;;;;;;8.95;100.00;100712.50;5030576;28;20184;-71
2022/12/24 04:01:58;;;;;;;31.98;8.00;;;;;;;8.97;100.00;100713.41;5027569;28;20053;-71
2022/12/24 04:04:24;;;;;;;33.30;8.57;;;;;;;8.96;100.00;100716.03;5029139;28;20143;-71
2022/12/24 04:06:49;;;;;;;31.00;8.13;;;;;;;8.97;100.00;100716.06;5029193;28;20475;-71
2022/12/24 04:09:14;;;;;;;29.75;7.82;;;;;;;8.94;100.00;100713.41;5028102;28;20042;-71
2022/12/24 04:11:40;;;;;;;34.00;8.85;;;;;;;8.92;100.00;100709.84;5030828;28;20035;-70
2022/12/24 04:14:05;;;;;;;30.15;7.78;;;;;;;8.92;100.00;100712.47;5027884;28;20115;-70
2022/12/24 04:16:31;;;;;;;30.77;8.48;;;;;;;8.92;100.00;100725.66;5029943;28;20476;-71
2022/12/24 04:18:56;;;;;;;31.98;8.18;;;;;;;8.91;100.00;100723.88;5028848;28;20033;-71
2022/12/24 04:21:21;;;;;;;30.77;8.10;;;;;;;8.93;100.00;100722.16;5028837;28;20184;-70
2022/12/24 04:23:47;;;;;;;32.88;8.50;;;;;;;8.95;100.00;100728.31;5030128;28;20063;-71
2022/12/24 04:26:13;;;;;;;29.02;7.53;;;;;;;8.94;100.00;100733.56;5026123;28;20030;-70
2022/12/24 04:28:40;;;;;;;30.23;8.00;;;;;;;8.89;100.00;100741.44;5030970;28;20033;-70
2022/12/24 04:31:09;;;;;;;33.45;8.20;;;;;;;8.82;100.00;100731.72;5027393;28;20033;-70
2022/12/24 04:33:35;;;;;;;31.83;8.02;;;;;;;8.83;100.00;100731.72;5030329;28;20033;-71
2022/12/24 04:36:03;;;;;;;31.25;8.55;;;;;;;8.85;100.00;100740.56;5028172;28;20095;-69
2022/12/24 04:38:29;;;;;;;34.03;8.95;;;;;;;8.87;100.00;100736.16;5029382;28;20030;-69
2022/12/24 04:41:03;;;;;;;33.67;8.80;;;;;;;8.87;100.00;100749.34;5029059;28;20493;-70
2022/12/24 04:43:30;;;;;;;31.90;8.80;;;;;;;8.88;100.00;100740.56;5029393;28;20502;-70
2022/12/24 04:45:56;;;;;;;30.38;8.40;;;;;;;8.87;100.00;100737.94;5028997;28;20022;-70
2022/12/24 04:48:21;;;;;;;34.03;9.15;;;;;;;8.86;100.00;100738.78;5028283;28;20030;-71
2022/12/24 04:50:47;;;;;;;32.88;8.60;;;;;;;8.76;100.00;100740.44;5030211;28;20022;-70
2022/12/24 04:53:13;;;;;;;33.45;8.18;;;;;;;8.72;100.00;100736.91;5027306;28;20032;-70
2022/12/24 04:55:44;;;;;;;34.47;8.70;;;;;;;8.72;100.00;100752.72;5027222;28;20045;-70
2022/12/24 04:58:09;;;;;;;31.90;8.20;;;;;;;8.68;100.00;100748.28;5027383;28;20034;-70
2022/12/24 05:00:35;;;;;;;32.58;7.95;;;;;;;8.69;100.00;100750.06;5029969;28;20379;-70
2022/12/24 05:03:00;;;;;;;31.38;7.30;;;;;;;8.70;100.00;100749.16;5028069;28;20037;-70
2022/12/24 05:05:25;;;;;;;30.83;6.97;;;;;;;8.75;100.00;100743.06;5028977;28;20480;-70
2022/12/24 05:07:51;;;;;;;32.55;7.10;;;;;;;8.75;100.00;100754.47;5029457;28;20033;-70
2022/12/24 05:10:16;;;;;;;32.20;6.97;;;;;;;8.77;100.00;100758.03;5023616;28;20045;-70
2022/12/24 05:12:42;;;;;;;32.53;6.78;;;;;;;8.77;100.00;100758.03;5027441;28;20060;-70
2022/12/24 05:15:07;;;;;;;32.47;6.88;;;;;;;8.79;100.00;100769.47;5024109;28;20034;-70
2022/12/24 05:17:32;;;;;;;33.72;7.85;;;;;;;8.80;100.00;100762.47;5026411;28;20379;-70
2022/12/24 05:19:58;;;;;;;31.58;6.93;;;;;;;8.83;100.00;100762.50;5025236;28;20484;-70
2022/12/24 05:27:53;;;;;;;33.22;7.60;;;;;;;8.71;100.00;100752.69;5025170;28;20125;-71
2022/12/24 05:30:19;;;;;;;33.83;7.88;;;;;;;8.67;100.00;100743.88;5026139;28;20470;-71
2022/12/24 05:32:44;;;;;;;33.15;7.43;;;;;;;8.65;100.00;100747.34;5023835;28;20041;-71
2022/12/24 05:35:09;;;;;;;34.28;7.00;;;;;;;8.59;100.00;100748.19;5025448;28;20095;-71
2022/12/24 05:37:35;;;;;;;31.02;6.90;;;;;;;8.48;100.00;100755.09;5023722;28;20037;-70
2022/12/24 05:40:00;;;;;;;30.30;7.53;;;;;;;8.45;100.00;100760.31;5025816;28;20038;-71
2022/12/24 05:42:25;;;;;;;31.67;7.70;;;;;;;8.51;100.00;100766.53;5024959;28;20025;-71
2022/12/24 05:44:51;;;;;;;34.33;8.05;;;;;;;8.51;100.00;100757.75;5024721;28;20041;-71
2022/12/24 05:47:16;;;;;;;32.28;7.30;;;;;;;8.48;100.00;100765.63;5026044;28;20033;-71
2022/12/24 05:49:41;;;;;;;33.33;7.82;;;;;;;8.44;100.00;100771.69;5023215;28;20036;-71
2022/12/24 05:52:07;;;;;;;36.30;8.15;;;;;;;8.47;100.00;100783.16;5026545;28;20037;-71
2022/12/24 05:54:32;;;;;;;31.88;7.55;;;;;;;8.50;100.00;100790.22;5023896;28;20026;-71
2022/12/24 05:56:57;;;;;;;33.25;7.53;;;;;;;8.52;100.00;100799.03;5023604;28;20088;-71
2022/12/24 05:59:23;;;;;;;28.85;7.35;;;;;;;8.56;100.00;100795.56;5025436;28;20365;-71
2022/12/24 06:01:48;;;;;;;33.50;7.85;;;;;;;8.62;100.00;100792.13;5023307;28;20064;-71
2022/12/24 06:04:13;;;;;;;31.85;8.02;;;;;;;8.54;100.00;100795.53;5026274;28;20025;-70
2022/12/24 06:06:39;;;;;;;32.90;8.13;;;;;;;8.45;100.00;100802.47;5023019;28;20030;-71
2022/12/24 06:09:04;;;;;;;32.80;8.20;;;;;;;8.44;100.00;100798.03;5025585;28;20030;-71
2022/12/24 06:11:30;;;;;;;31.00;8.82;;;;;;;8.44;100.00;100795.38;5024129;28;20124;-70
2022/12/24 06:13:55;;;;;;;31.48;8.65;;;;;;;8.47;100.00;100803.34;5024646;28;20030;-71
2022/12/24 06:16:22;;;;;;;33.05;8.23;;;;;;;8.42;100.00;100803.28;5025039;28;20438;-71
2022/12/24 06:18:48;;;;;;;32.45;9.05;;;;;;;8.42;100.00;100794.47;5023116;28;20034;-70
2022/12/24 06:21:14;;;;;;;33.33;8.98;;;;;;;8.41;100.00;100801.50;5025029;28;20075;-71
2022/12/24 06:23:41;;;;;;;33.83;8.73;;;;;;;8.36;100.00;100813.75;5022549;28;20033;-71
2022/12/24 06:26:10;;;;;;;31.08;8.60;;;;;;;8.38;100.00;100798.81;5025773;28;20025;-71
2022/12/24 06:28:36;;;;;;;28.55;8.43;;;;;;;8.36;100.00;100809.34;5023041;28;20540;-70
2022/12/24 06:31:04;;;;;;;33.08;8.95;;;;;;;8.28;100.00;100807.47;5024821;28;20058;-71
2022/12/24 06:33:33;;;;;;;30.02;9.05;;;;;;;8.28;100.00;100821.53;5023603;28;20060;-70
2022/12/24 06:35:58;;;;;;;31.67;8.77;;;;;;;8.21;100.00;100819.66;5024243;28;20040;-70
2022/12/24 06:38:24;;;;;;;31.38;8.90;;;;;;;8.20;100.00;100833.72;5024319;28;20025;-70
2022/12/24 06:40:49;;;;;;;32.83;8.73;;;;;;;8.19;100.00;100826.69;5022923;28;20380;-71
2022/12/24 06:43:14;;;;;;;32.70;8.60;;;;;;;8.19;100.00;100831.94;5025629;28;20464;-71
2022/12/24 06:45:45;;;;;;;32.45;8.70;;;;;;;8.18;100.00;100830.16;5022055;28;20037;-71
2022/12/24 06:48:10;;;;;;;32.78;8.32;;;;;;;8.17;100.00;100829.28;5020857;28;20072;-69
2022/12/24 06:50:36;;;;;;;33.70;9.98;;;;;;;8.14;100.00;100829.25;5025098;28;20033;-71
2022/12/24 06:53:02;;;;;;;33.03;9.05;;;;;;;8.14;100.00;100828.34;5023032;28;20032;-70
2022/12/24 06:55:27;;;;;;;37.03;10.05;;;;;;;8.23;100.00;100828.50;5023769;28;20048;-71
2022/12/24 06:57:52;;;;;;;32.38;9.55;;;;;;;8.28;100.00;100836.44;5024137;28;20029;-71
2022/12/24 07:00:18;;;;;;;35.72;10.23;;;;;;;8.36;100.00;100826.91;5022360;28;20076;-70
2022/12/24 07:02:44;;;;;;;31.83;9.07;;;;;;;8.40;100.00;100844.50;5025219;28;20069;-71
2022/12/24 07:05:13;;;;;;;36.30;9.70;;;;;;;8.45;100.00;100842.00;5021771;28;20038;-71
2022/12/24 07:07:43;;;;;;;34.90;9.68;;;;;;;8.44;100.00;100848.97;5024991;28;20034;-71
2022/12/24 07:10:16;;;;;;;35.15;9.30;;;;;;;8.42;100.00;100852.44;5021742;28;20033;-70
2022/12/24 07:12:41;;;;;;;33.72;9.43;;;;;;;8.32;100.00;100844.41;5021839;28;20037;-71
2022/12/24 07:15:08;;;;;;;35.63;9.50;;;;;;;8.23;100.00;100849.56;5024899;28;20040;-70
2022/12/24 07:17:33;;;;;;;35.72;9.07;;;;;;;8.14;100.00;100852.94;5022265;28;20078;-71
2022/12/24 07:19:59;;;;;;;34.35;8.50;;;;;;;8.13;100.00;100847.66;5023617;28;20113;-70
2022/12/24 07:22:24;;;;;;;34.10;8.55;;;;;;;8.08;100.00;100847.59;5023487;28;20053;-71
2022/12/24 07:24:49;;;;;;;34.58;8.55;;;;;;;8.09;100.00;100856.38;5022150;28;20030;-71
2022/12/24 07:27:15;;;;;;;34.40;8.98;;;;;;;8.15;100.00;100853.81;5025068;28;20030;-71
2022/12/24 07:29:41;;;;;;;35.42;9.02;;;;;;;8.11;100.00;100865.16;5021412;28;20117;-70
2022/12/24 07:32:06;;;;;;;33.10;8.90;;;;;;;8.09;100.00;100866.91;5023146;28;20034;-70
2022/12/24 07:34:31;;;;;;;35.65;9.10;;;;;;;8.05;100.00;100865.97;5022327;28;20079;-71
2022/12/24 07:36:57;;;;;;;38.50;10.00;;;;;;;8.13;100.00;100884.53;5022878;28;20033;-71
2022/12/24 07:39:22;;;;;;;36.30;9.52;;;;;;;8.15;100.00;100893.31;5022408;28;20033;-71
2022/12/24 07:41:49;;;;;;;35.83;9.02;;;;;;;8.12;100.00;100877.47;5021614;28;20030;-71
2022/12/24 07:44:15;;;;;;;35.85;9.25;;;;;;;8.08;100.00;100886.19;5024627;28;20060;-71
2022/12/24 07:46:40;;;;;;;35.28;8.55;;;;;;;8.08;100.00;100881.84;5021742;28;20516;-71
2022/12/24 07:49:06;;;;;;;33.45;8.82;;;;;;;8.03;100.00;100881.72;5023963;28;20036;-71
2022/12/24 07:51:31;;;;;;;33.63;8.52;;;;;;;8.00;100.00;100897.47;5022198;28;20125;-70
2022/12/24 07:53:57;;;;;;;36.53;8.70;;;;;;;8.00;100.00;100902.75;5022852;28;20380;-71
2022/12/24 07:56:22;;;;;;;34.95;8.85;;;;;;;7.98;100.00;100911.47;5023300;28;20125;-70
2022/12/24 07:58:49;;;;;;;33.65;8.60;;;;;;;8.03;100.00;100896.66;5021348;28;20037;-70
2022/12/24 08:01:15;;;;;;;33.25;8.40;;;;;;;8.12;100.00;100917.84;5022946;28;20428;-70
2022/12/24 08:03:40;;;;;;;38.72;8.45;;;;;;;8.15;100.00;100924.91;5024426;28;20111;-71
2022/12/24 08:06:05;;;;;;;36.22;8.75;;;;;;;8.18;100.00;100931.13;5027988;28;20112;-70
2022/12/24 08:08:31;;;;;;;31.40;7.72;;;;;;;8.27;100.00;100930.41;5025802;28;20082;-71
2022/12/24 08:11:01;;;;;;;31.30;7.70;;;;;;;8.28;100.00;100929.50;5025912;28;20017;-71
2022/12/24 08:13:27;;;;;;;34.20;8.13;;;;;;;8.24;100.00;100934.72;5026547;28;20032;-70
2022/12/24 08:15:53;;;;;;;31.15;7.63;;;;;;;8.22;100.00;100936.44;5024982;28;20030;-70
2022/12/24 08:18:18;;;;;;;31.70;7.40;;;;;;;8.18;100.00;100944.31;5023659;28;20026;-73
2022/12/24 08:20:44;;;;;;;35.17;8.23;;;;;;;8.23;100.00;100947.00;5026946;28;20472;-69
2022/12/24 08:23:09;;;;;;;33.17;7.80;;;;;;;8.22;100.00;100955.75;5023677;28;20037;-69
2022/12/24 08:25:35;;;;;;;34.60;8.38;;;;;;;8.20;100.00;100954.84;5025703;28;20029;-72
2022/12/24 08:28:01;;;;;;;35.40;8.40;;;;;;;8.19;100.00;100966.25;5021789;28;20034;-72
2022/12/24 08:30:27;;;;;;;33.83;8.25;;;;;;;8.18;100.00;100960.09;5024362;28;20040;-71
2022/12/24 08:32:53;;;;;;;32.97;8.30;;;;;;;8.28;100.00;100978.69;5026071;28;20025;-72
2022/12/24 08:35:19;;;;;;;31.95;8.43;;;;;;;8.32;100.00;100969.97;5024089;28;20116;-71
2022/12/24 08:37:44;;;;;;;32.20;7.97;;;;;;;8.29;100.00;100975.19;5027767;28;20068;-70
2022/12/24 08:40:10;;;;;;;34.42;8.02;;;;;;;8.33;100.00;100966.44;5021853;28;20121;-71
2022/12/24 08:42:35;;;;;;;30.90;7.65;;;;;;;8.32;100.00;100970.84;5023990;28;20033;-71
2022/12/24 08:45:01;;;;;;;32.70;8.10;;;;;;;8.32;100.00;100976.09;5029224;28;20029;-72
2022/12/24 08:47:26;;;;;;;31.35;8.13;;;;;;;8.33;100.00;100974.34;5029516;28;20029;-72
2022/12/24 08:49:51;;;;;;;35.13;8.68;;;;;;;8.35;100.00;100970.00;5029203;28;20092;-72
2022/12/24 08:52:17;;;;;;;36.33;9.15;;;;;;;8.35;100.00;100978.78;5028887;28;20030;-72
2022/12/24 08:54:42;;;;;;;33.28;8.90;;;;;;;8.33;100.00;100983.16;5028399;28;20047;-72
2022/12/24 08:57:08;;;;;;;34.03;9.10;;;;;;;8.32;100.00;100993.66;5028302;28;20021;-72
2022/12/24 08:59:33;;;;;;;34.80;9.07;;;;;;;8.34;100.00;100984.94;5030891;28;20036;-72
2022/12/24 09:01:58;;;;;;;36.65;8.88;;;;;;;8.36;100.00;100998.13;5028050;28;20049;-70
2022/12/24 09:04:24;;;;;;;32.97;9.10;;;;;;;8.37;100.00;101000.78;5027211;28;20054;-71
2022/12/24 09:06:49;;;;;;;35.88;9.55;;;;;;;8.37;100.00;100995.53;5029420;28;20492;-70
2022/12/24 09:09:14;;;;;;;38.80;10.48;;;;;;;8.35;100.00;101006.88;5027832;28;20088;-71
2022/12/24 09:11:40;;;;;;;36.13;9.73;;;;;;;8.32;100.00;101013.00;5028534;28;20029;-71
2022/12/24 09:14:05;;;;;;;33.22;9.38;;;;;;;8.32;100.00;101012.13;5024597;28;20108;-71
2022/12/24 09:16:30;;;;;;;38.78;9.57;;;;;;;8.32;100.00;101015.63;5025865;28;20045;-71
2022/12/24 09:18:57;;;;;;;31.83;9.27;;;;;;;8.41;100.00;101027.19;5025889;28;20052;-71
2022/12/24 09:21:23;;;;;;;34.70;10.02;;;;;;;8.43;100.00;101031.63;5024701;28;20034;-72
2022/12/24 09:23:48;;;;;;;34.72;9.55;;;;;;;8.52;100.00;101039.69;5026996;28;20030;-72
2022/12/24 09:26:24;;;;;;;31.83;9.18;;;;;;;8.62;100.00;101042.47;5022439;28;20030;-72
2022/12/24 09:28:51;;;;;;;34.85;9.48;;;;;;;8.71;100.00;101054.03;5024151;28;20057;-72
2022/12/24 09:31:20;;;;;;;33.67;9.50;;;;;;;8.94;100.00;101052.59;5026979;28;20029;-71
2022/12/24 09:33:47;;;;;;;33.15;8.60;;;;;;;9.14;100.00;101050.25;5023640;28;20036;-72
2022/12/24 09:36:13;;;;;;;32.33;8.93;;;;;;;9.19;100.00;101044.16;5023438;28;20034;-72
2022/12/24 09:38:39;;;;;;;35.00;8.45;;;;;;;9.21;100.00;101057.38;5026463;28;20025;-72
2022/12/24 09:41:11;;;;;;;35.33;9.10;;;;;;;9.21;100.00;101054.75;5024314;28;20091;-72
2022/12/24 09:43:37;;;;;;;;;;;;;;;9.30;100.00;101064.53;5026497;28;20095;-72
2022/12/24 09:46:19;;;;;;;33.63;8.68;;;;;;;9.25;100.00;101056.56;5024223;28;19913;-72
2022/12/24 09:48:49;;;;;;;35.05;8.38;;;;;;;9.31;100.00;101072.47;5023342;28;20122;-72
2022/12/24 09:51:30;;;;;;;33.47;8.32;;;;;;;9.30;100.00;101068.03;5023404;28;20029;-72
2022/12/24 09:54:18;;;;;;;32.50;8.35;;;;;;;9.22;100.00;101088.19;5024653;28;20038;-73
2022/12/24 09:56:45;;;;;;;33.75;8.38;;;;;;;9.07;100.00;101080.91;5022903;28;20369;-72
2022/12/24 09:59:15;;;;;;;34.05;8.52;;;;;;;9.01;100.00;101087.00;5026548;28;20376;-73
2022/12/24 10:01:40;;;;;;;30.55;8.27;;;;;;;8.95;100.00;101079.00;5022948;28;20045;-73
2022/12/24 10:04:12;;;;;;;33.33;9.50;;;;;;;8.94;100.00;101094.78;5025733;28;20092;-73
2022/12/24 10:06:47;;;;;;;34.45;9.80;;;;;;;8.98;100.00;101089.56;5023603;28;20156;-73
2022/12/24 10:09:27;;;;;;;34.13;9.80;;;;;;;9.08;100.00;101091.47;5023153;28;20029;-72
2022/12/24 10:12:31;;;;;;;33.28;9.02;;;;;;;9.20;100.00;101101.34;5023641;28;20022;-73
2022/12/24 10:15:20;;;;;;;35.83;9.68;;;;;;;9.36;100.00;101088.34;5023938;28;20472;-73
2022/12/24 10:17:50;;;;;;;35.58;9.57;;;;;;;9.26;100.00;101100.50;5021584;28;20065;-73
2022/12/24 10:20:43;;;;;;;34.70;9.50;;;;;;;9.19;100.00;101088.13;5022623;28;20029;-73
2022/12/24 10:23:23;;;;;;;;;;;;;;;9.15;100.00;101086.31;5026064;28;20021;-73
2022/12/24 10:26:11;;;;;;;33.08;9.38;;;;;;;9.07;100.00;101081.81;5022904;28;19920;-73
2022/12/24 10:28:47;;;;;;;35.95;10.25;;;;;;;9.11;100.00;101087.13;5023118;28;20041;-73
2022/12/24 10:31:14;;;;;;;34.17;9.45;;;;;;;9.15;100.00;101087.19;5022339;28;20054;-73
2022/12/24 10:33:46;;;;;;;35.47;10.05;;;;;;;9.24;100.00;101087.31;5025524;28;20033;-73
2022/12/24 10:36:17;;;;;;;35.85;10.07;;;;;;;9.43;100.00;101088.44;5022474;28;20026;-72
2022/12/24 10:38:44;;;;;;;34.78;9.70;;;;;;;9.57;100.00;101090.41;5022331;28;20029;-73
2022/12/24 10:41:11;;;;;;;34.55;9.80;;;;;;;9.75;100.00;101100.28;5022403;28;20021;-73
2022/12/24 10:43:39;;;;;;;32.75;9.10;;;;;;;9.88;100.00;101096.03;5025573;28;20574;-73
2022/12/24 10:46:37;;;;;;;31.83;8.88;;;;;;;9.92;100.00;101103.13;5022009;28;20365;-73
2022/12/24 10:49:05;;;;;;;31.88;8.80;;;;;;;10.05;100.00;101099.75;5014624;28;20064;-73
2022/12/24 10:52:11;;;;;;;31.25;8.65;;;;;;;10.11;100.00;101105.06;5025179;28;20423;-73
2022/12/24 10:54:59;;;;;;;30.60;8.82;;;;;;;9.91;100.00;101098.69;4950040;29;20131;-73
2022/12/24 10:57:25;;;;;;;33.67;9.18;;;;;;;9.76;100.00;101102.94;4952391;29;20031;-72
2022/12/24 10:59:55;;;;;;;33.58;9.27;;;;;;;9.75;100.00;101101.16;4997650;28;20049;-73
2022/12/24 11:02:36;;;;;;;31.67;8.10;;;;;;;9.76;100.00;101091.50;5023262;28;20057;-73
2022/12/24 11:05:04;;;;;;;32.42;9.25;;;;;;;9.68;100.00;101098.44;5024982;28;20044;-72
2022/12/24 11:07:31;;;;;;;31.35;8.73;;;;;;;9.63;100.00;101105.41;5021599;28;20021;-73
2022/12/24 11:09:59;;;;;;;32.15;8.20;;;;;;;9.59;100.00;101096.56;5024210;28;20113;-72
2022/12/24 11:12:28;;;;;;;32.08;8.75;;;;;;;9.56;100.00;101105.31;5022808;28;20029;-73
2022/12/24 11:15:17;;;;;;;31.67;8.23;;;;;;;9.53;100.00;101107.91;5023679;28;20018;-73
2022/12/24 11:17:53;;;;;;;31.27;8.50;;;;;;;9.63;100.00;101103.66;5022202;28;20492;-73
2022/12/24 11:20:24;;;;;;;35.78;8.85;;;;;;;9.69;100.00;101100.22;5023753;28;20052;-73
2022/12/24 11:22:49;;;;;;;32.22;9.00;;;;;;;9.74;100.00;101102.03;5023276;28;20028;-73
2022/12/24 11:25:21;;;;;;;33.97;8.73;;;;;;;9.81;100.00;101104.75;5023793;28;20026;-72
2022/12/24 11:27:50;;;;;;;32.08;8.68;;;;;;;9.81;100.00;101108.25;5021696;28;20369;-73
2022/12/24 11:30:15;;;;;;;31.15;8.23;;;;;;;9.83;100.00;101118.84;5023924;28;20026;-73
2022/12/24 11:32:41;;;;;;;30.38;8.90;;;;;;;9.80;100.00;101121.44;5021746;28;20033;-72